sensor_id;sensor_type;location;lat;lon;timestamp;P1;durP1;ratioP1;P2;durP2;ratioP2
16472;SDS011;8347;52.486;13.432;2023-05-07T00:02:34;15.32;;;11.77;;
16472;SDS011;8347;52.486;13.432;2023-05-07T00:05:20;14.98;;;11.23;;
16472;SDS011;8347;52.486;13.432;2023-05-07T00:08:07;15.55;;;10.85;;
16472;SDS011;8347;52.486;13.432;2023-05-07T00:10:54;17.45;;;11.57;;
16472;SDS011;8347;52.486;13.432;2023-05-07T00:13:40;11.80;;;10.43;;
16472;SDS011;8347;52.486;13.432;2023-05-07T00:16:26;15.57;;;11.23;;
16472;SDS011;8347;52.486;13.432;2023-05-07T00:19:13;15.13;;;10.93;;
16472;SDS011;8347;52.486;13.432;2023-05-07T00:22:00;15.43;;;11.18;;
16472;SDS011;8347;52.486;13.432;2023-05-07T00:24:46;15.98;;;11.18;;
16472;SDS011;8347;52.486;13.432;2023-05-07T00:27:33;16.40;;;11.77;;
16472;SDS011;8347;52.486;13.432;2023-05-07T00:30:19;12.63;;;10.20;;
16472;SDS011;8347;52.486;13.432;2023-05-07T00:33:06;14.55;;;10.80;;
16472;SDS011;8347;52.486;13.432;2023-05-07T00:35:52;12.90;;;9.52;;
16472;SDS011;8347;52.486;13.432;2023-05-07T00:38:40;13.85;;;9.43;;
16472;SDS011;8347;52.486;13.432;2023-05-07T00:41:26;14.43;;;11.23;;
16472;SDS011;8347;52.486;13.432;2023-05-07T00:44:13;11.93;;;9.48;;
16472;SDS011;8347;52.486;13.432;2023-05-07T00:47:01;13.73;;;11.15;;
16472;SDS011;8347;52.486;13.432;2023-05-07T00:49:49;14.73;;;9.93;;
16472;SDS011;8347;52.486;13.432;2023-05-07T00:52:35;12.50;;;10.07;;
16472;SDS011;8347;52.486;13.432;2023-05-07T00:55:23;12.52;;;10.23;;
16472;SDS011;8347;52.486;13.432;2023-05-07T00:58:10;13.43;;;9.98;;
16472;SDS011;8347;52.486;13.432;2023-05-07T01:00:57;17.70;;;10.90;;
16472;SDS011;8347;52.486;13.432;2023-05-07T01:03:43;13.70;;;10.88;;
16472;SDS011;8347;52.486;13.432;2023-05-07T01:06:30;17.15;;;11.05;;
16472;SDS011;8347;52.486;13.432;2023-05-07T01:09:19;12.48;;;9.77;;
16472;SDS011;8347;52.486;13.432;2023-05-07T01:12:06;15.02;;;9.90;;
16472;SDS011;8347;52.486;13.432;2023-05-07T01:14:53;15.05;;;10.27;;
16472;SDS011;8347;52.486;13.432;2023-05-07T01:17:41;15.02;;;10.25;;
16472;SDS011;8347;52.486;13.432;2023-05-07T01:20:33;11.13;;;9.02;;
16472;SDS011;8347;52.486;13.432;2023-05-07T01:23:20;15.25;;;10.77;;
16472;SDS011;8347;52.486;13.432;2023-05-07T01:26:06;13.15;;;10.15;;
16472;SDS011;8347;52.486;13.432;2023-05-07T01:28:54;12.63;;;10.27;;
16472;SDS011;8347;52.486;13.432;2023-05-07T01:31:40;14.05;;;11.85;;
16472;SDS011;8347;52.486;13.432;2023-05-07T01:34:30;15.48;;;10.30;;
16472;SDS011;8347;52.486;13.432;2023-05-07T01:37:17;13.95;;;10.93;;
16472;SDS011;8347;52.486;13.432;2023-05-07T01:40:04;12.52;;;9.73;;
16472;SDS011;8347;52.486;13.432;2023-05-07T01:42:52;14.23;;;10.43;;
16472;SDS011;8347;52.486;13.432;2023-05-07T01:45:40;14.52;;;10.55;;
16472;SDS011;8347;52.486;13.432;2023-05-07T01:48:27;15.20;;;10.00;;
16472;SDS011;8347;52.486;13.432;2023-05-07T01:51:14;13.57;;;10.20;;
16472;SDS011;8347;52.486;13.432;2023-05-07T01:54:01;16.25;;;9.45;;
16472;SDS011;8347;52.486;13.432;2023-05-07T01:56:48;13.77;;;8.90;;
16472;SDS011;8347;52.486;13.432;2023-05-07T01:59:35;13.95;;;9.18;;
16472;SDS011;8347;52.486;13.432;2023-05-07T02:02:21;14.40;;;9.30;;
16472;SDS011;8347;52.486;13.432;2023-05-07T02:05:08;14.30;;;10.35;;
16472;SDS011;8347;52.486;13.432;2023-05-07T02:07:56;12.73;;;9.15;;
16472;SDS011;8347;52.486;13.432;2023-05-07T02:10:45;15.02;;;8.82;;
16472;SDS011;8347;52.486;13.432;2023-05-07T02:13:32;14.00;;;9.35;;
16472;SDS011;8347;52.486;13.432;2023-05-07T02:16:20;11.50;;;9.43;;
16472;SDS011;8347;52.486;13.432;2023-05-07T02:19:07;14.15;;;10.57;;
16472;SDS011;8347;52.486;13.432;2023-05-07T02:21:54;14.48;;;9.25;;
16472;SDS011;8347;52.486;13.432;2023-05-07T02:24:41;13.20;;;9.60;;
16472;SDS011;8347;52.486;13.432;2023-05-07T02:27:27;15.88;;;10.55;;
16472;SDS011;8347;52.486;13.432;2023-05-07T02:30:14;14.45;;;9.90;;
16472;SDS011;8347;52.486;13.432;2023-05-07T02:33:01;16.25;;;9.73;;
16472;SDS011;8347;52.486;13.432;2023-05-07T02:35:48;14.23;;;10.38;;
16472;SDS011;8347;52.486;13.432;2023-05-07T02:38:35;13.88;;;10.15;;
16472;SDS011;8347;52.486;13.432;2023-05-07T02:41:22;15.45;;;10.77;;
16472;SDS011;8347;52.486;13.432;2023-05-07T02:44:09;13.27;;;10.52;;
16472;SDS011;8347;52.486;13.432;2023-05-07T02:46:57;14.10;;;10.27;;
16472;SDS011;8347;52.486;13.432;2023-05-07T02:49:44;13.95;;;9.60;;
16472;SDS011;8347;52.486;13.432;2023-05-07T02:52:31;12.50;;;10.32;;
16472;SDS011;8347;52.486;13.432;2023-05-07T02:55:17;13.63;;;10.10;;
16472;SDS011;8347;52.486;13.432;2023-05-07T02:58:04;14.20;;;11.07;;
16472;SDS011;8347;52.486;13.432;2023-05-07T03:00:54;12.13;;;9.85;;
16472;SDS011;8347;52.486;13.432;2023-05-07T03:03:52;12.95;;;9.48;;
16472;SDS011;8347;52.486;13.432;2023-05-07T03:06:38;10.82;;;9.15;;
16472;SDS011;8347;52.486;13.432;2023-05-07T03:09:25;11.20;;;8.98;;
16472;SDS011;8347;52.486;13.432;2023-05-07T03:12:11;10.63;;;8.93;;
16472;SDS011;8347;52.486;13.432;2023-05-07T03:14:58;10.95;;;9.05;;
16472;SDS011;8347;52.486;13.432;2023-05-07T03:17:44;13.77;;;9.52;;
16472;SDS011;8347;52.486;13.432;2023-05-07T03:20:31;10.20;;;8.48;;
16472;SDS011;8347;52.486;13.432;2023-05-07T03:23:17;13.13;;;9.07;;
16472;SDS011;8347;52.486;13.432;2023-05-07T03:26:04;15.30;;;9.77;;
16472;SDS011;8347;52.486;13.432;2023-05-07T03:28:51;13.10;;;10.07;;
16472;SDS011;8347;52.486;13.432;2023-05-07T03:31:38;11.90;;;8.50;;
16472;SDS011;8347;52.486;13.432;2023-05-07T03:34:24;11.80;;;9.70;;
16472;SDS011;8347;52.486;13.432;2023-05-07T03:37:11;14.52;;;10.38;;
16472;SDS011;8347;52.486;13.432;2023-05-07T03:39:57;13.55;;;10.27;;
16472;SDS011;8347;52.486;13.432;2023-05-07T03:42:44;12.27;;;9.80;;
16472;SDS011;8347;52.486;13.432;2023-05-07T03:45:32;11.27;;;9.00;;
16472;SDS011;8347;52.486;13.432;2023-05-07T03:48:29;16.17;;;8.98;;
16472;SDS011;8347;52.486;13.432;2023-05-07T03:51:17;13.52;;;9.65;;
16472;SDS011;8347;52.486;13.432;2023-05-07T03:54:04;11.27;;;9.45;;
16472;SDS011;8347;52.486;13.432;2023-05-07T03:56:52;11.23;;;9.25;;
16472;SDS011;8347;52.486;13.432;2023-05-07T03:59:39;12.48;;;9.30;;
16472;SDS011;8347;52.486;13.432;2023-05-07T04:02:27;13.75;;;10.15;;
16472;SDS011;8347;52.486;13.432;2023-05-07T04:05:13;15.05;;;9.77;;
16472;SDS011;8347;52.486;13.432;2023-05-07T04:08:02;13.45;;;9.90;;
16472;SDS011;8347;52.486;13.432;2023-05-07T04:10:57;12.38;;;9.93;;
16472;SDS011;8347;52.486;13.432;2023-05-07T04:13:47;12.43;;;8.68;;
16472;SDS011;8347;52.486;13.432;2023-05-07T04:16:36;11.05;;;8.93;;
16472;SDS011;8347;52.486;13.432;2023-05-07T04:19:24;11.27;;;9.00;;
16472;SDS011;8347;52.486;13.432;2023-05-07T04:22:12;13.38;;;9.90;;
16472;SDS011;8347;52.486;13.432;2023-05-07T04:24:59;13.40;;;9.73;;
16472;SDS011;8347;52.486;13.432;2023-05-07T04:27:47;12.43;;;8.40;;
16472;SDS011;8347;52.486;13.432;2023-05-07T04:30:35;11.20;;;8.98;;
16472;SDS011;8347;52.486;13.432;2023-05-07T04:33:23;11.85;;;8.10;;
16472;SDS011;8347;52.486;13.432;2023-05-07T04:36:10;16.13;;;8.63;;
16472;SDS011;8347;52.486;13.432;2023-05-07T04:39:04;46.28;;;16.02;;
16472;SDS011;8347;52.486;13.432;2023-05-07T04:41:51;11.95;;;8.13;;
16472;SDS011;8347;52.486;13.432;2023-05-07T04:44:38;11.90;;;8.07;;
16472;SDS011;8347;52.486;13.432;2023-05-07T04:47:24;12.05;;;7.82;;
16472;SDS011;8347;52.486;13.432;2023-05-07T04:50:11;10.00;;;8.15;;
16472;SDS011;8347;52.486;13.432;2023-05-07T04:52:59;10.82;;;7.32;;
16472;SDS011;8347;52.486;13.432;2023-05-07T04:55:46;39.55;;;10.75;;
16472;SDS011;8347;52.486;13.432;2023-05-07T04:58:34;9.15;;;6.70;;
16472;SDS011;8347;52.486;13.432;2023-05-07T05:01:20;12.05;;;7.45;;
16472;SDS011;8347;52.486;13.432;2023-05-07T05:04:07;9.27;;;7.05;;
16472;SDS011;8347;52.486;13.432;2023-05-07T05:06:53;8.82;;;6.68;;
16472;SDS011;8347;52.486;13.432;2023-05-07T05:09:40;11.48;;;7.43;;
16472;SDS011;8347;52.486;13.432;2023-05-07T05:12:27;9.77;;;6.13;;
16472;SDS011;8347;52.486;13.432;2023-05-07T05:15:14;29.83;;;11.05;;
16472;SDS011;8347;52.486;13.432;2023-05-07T05:18:02;10.77;;;7.05;;
16472;SDS011;8347;52.486;13.432;2023-05-07T05:20:51;8.48;;;5.53;;
16472;SDS011;8347;52.486;13.432;2023-05-07T05:23:38;6.68;;;5.97;;
16472;SDS011;8347;52.486;13.432;2023-05-07T05:26:25;10.32;;;7.32;;
16472;SDS011;8347;52.486;13.432;2023-05-07T05:29:12;10.88;;;6.22;;
16472;SDS011;8347;52.486;13.432;2023-05-07T05:32:01;10.93;;;5.88;;
16472;SDS011;8347;52.486;13.432;2023-05-07T05:34:50;10.65;;;7.30;;
16472;SDS011;8347;52.486;13.432;2023-05-07T05:37:37;15.70;;;7.15;;
16472;SDS011;8347;52.486;13.432;2023-05-07T05:40:25;10.52;;;6.82;;
16472;SDS011;8347;52.486;13.432;2023-05-07T05:43:13;10.00;;;6.93;;
16472;SDS011;8347;52.486;13.432;2023-05-07T05:46:00;15.73;;;7.72;;
16472;SDS011;8347;52.486;13.432;2023-05-07T05:48:47;14.00;;;6.68;;
16472;SDS011;8347;52.486;13.432;2023-05-07T05:51:33;13.77;;;6.95;;
16472;SDS011;8347;52.486;13.432;2023-05-07T05:54:20;14.50;;;6.57;;
16472;SDS011;8347;52.486;13.432;2023-05-07T05:57:07;11.10;;;7.18;;
16472;SDS011;8347;52.486;13.432;2023-05-07T05:59:54;11.52;;;6.85;;
16472;SDS011;8347;52.486;13.432;2023-05-07T06:02:40;9.00;;;6.68;;
16472;SDS011;8347;52.486;13.432;2023-05-07T06:05:28;9.77;;;6.20;;
16472;SDS011;8347;52.486;13.432;2023-05-07T06:08:16;10.45;;;6.82;;
16472;SDS011;8347;52.486;13.432;2023-05-07T06:11:03;8.13;;;6.13;;
16472;SDS011;8347;52.486;13.432;2023-05-07T06:13:53;9.80;;;6.80;;
16472;SDS011;8347;52.486;13.432;2023-05-07T06:16:39;10.38;;;6.70;;
16472;SDS011;8347;52.486;13.432;2023-05-07T06:19:27;14.55;;;7.00;;
16472;SDS011;8347;52.486;13.432;2023-05-07T06:22:15;10.75;;;8.05;;
16472;SDS011;8347;52.486;13.432;2023-05-07T06:25:01;9.82;;;6.63;;
16472;SDS011;8347;52.486;13.432;2023-05-07T06:27:48;8.35;;;6.75;;
16472;SDS011;8347;52.486;13.432;2023-05-07T06:30:35;8.82;;;6.28;;
16472;SDS011;8347;52.486;13.432;2023-05-07T06:33:22;9.10;;;6.78;;
16472;SDS011;8347;52.486;13.432;2023-05-07T06:36:09;11.13;;;7.05;;
16472;SDS011;8347;52.486;13.432;2023-05-07T06:38:56;8.32;;;6.45;;
16472;SDS011;8347;52.486;13.432;2023-05-07T06:41:43;7.32;;;5.72;;
16472;SDS011;8347;52.486;13.432;2023-05-07T06:44:40;8.38;;;6.22;;
16472;SDS011;8347;52.486;13.432;2023-05-07T06:47:30;11.82;;;6.50;;
16472;SDS011;8347;52.486;13.432;2023-05-07T06:50:17;7.50;;;5.70;;
16472;SDS011;8347;52.486;13.432;2023-05-07T06:53:04;7.70;;;5.20;;
16472;SDS011;8347;52.486;13.432;2023-05-07T06:55:52;9.38;;;5.57;;
16472;SDS011;8347;52.486;13.432;2023-05-07T06:58:40;8.35;;;6.35;;
16472;SDS011;8347;52.486;13.432;2023-05-07T07:01:28;7.60;;;6.07;;
16472;SDS011;8347;52.486;13.432;2023-05-07T07:04:15;7.63;;;5.57;;
16472;SDS011;8347;52.486;13.432;2023-05-07T07:07:03;6.72;;;5.45;;
16472;SDS011;8347;52.486;13.432;2023-05-07T07:09:50;10.18;;;6.47;;
16472;SDS011;8347;52.486;13.432;2023-05-07T07:12:38;6.70;;;5.60;;
16472;SDS011;8347;52.486;13.432;2023-05-07T07:15:25;9.00;;;5.60;;
16472;SDS011;8347;52.486;13.432;2023-05-07T07:18:14;5.57;;;4.88;;
16472;SDS011;8347;52.486;13.432;2023-05-07T07:21:01;5.85;;;4.63;;
16472;SDS011;8347;52.486;13.432;2023-05-07T07:23:48;7.70;;;5.70;;
16472;SDS011;8347;52.486;13.432;2023-05-07T07:26:35;5.95;;;4.28;;
16472;SDS011;8347;52.486;13.432;2023-05-07T07:29:22;5.95;;;4.60;;
16472;SDS011;8347;52.486;13.432;2023-05-07T07:32:11;5.28;;;4.20;;
16472;SDS011;8347;52.486;13.432;2023-05-07T07:34:57;6.18;;;4.18;;
16472;SDS011;8347;52.486;13.432;2023-05-07T07:37:44;22.98;;;7.88;;
16472;SDS011;8347;52.486;13.432;2023-05-07T07:40:36;5.65;;;4.75;;
16472;SDS011;8347;52.486;13.432;2023-05-07T07:43:24;7.15;;;4.40;;
16472;SDS011;8347;52.486;13.432;2023-05-07T07:46:12;6.30;;;4.70;;
16472;SDS011;8347;52.486;13.432;2023-05-07T07:49:00;6.75;;;4.95;;
16472;SDS011;8347;52.486;13.432;2023-05-07T07:51:47;5.82;;;4.28;;
16472;SDS011;8347;52.486;13.432;2023-05-07T07:54:34;12.35;;;4.95;;
16472;SDS011;8347;52.486;13.432;2023-05-07T07:57:20;7.30;;;4.63;;
16472;SDS011;8347;52.486;13.432;2023-05-07T08:00:07;8.93;;;4.05;;
16472;SDS011;8347;52.486;13.432;2023-05-07T08:03:02;21.90;;;7.35;;
16472;SDS011;8347;52.486;13.432;2023-05-07T08:05:53;14.63;;;6.65;;
16472;SDS011;8347;52.486;13.432;2023-05-07T08:08:41;5.28;;;3.53;;
16472;SDS011;8347;52.486;13.432;2023-05-07T08:11:28;9.52;;;4.00;;
16472;SDS011;8347;52.486;13.432;2023-05-07T08:14:15;6.65;;;3.75;;
16472;SDS011;8347;52.486;13.432;2023-05-07T08:17:05;7.75;;;3.85;;
16472;SDS011;8347;52.486;13.432;2023-05-07T08:19:52;3.78;;;3.20;;
16472;SDS011;8347;52.486;13.432;2023-05-07T08:22:39;5.22;;;3.80;;
16472;SDS011;8347;52.486;13.432;2023-05-07T08:25:26;4.88;;;3.10;;
16472;SDS011;8347;52.486;13.432;2023-05-07T08:28:13;5.78;;;3.63;;
16472;SDS011;8347;52.486;13.432;2023-05-07T08:31:00;4.65;;;3.00;;
16472;SDS011;8347;52.486;13.432;2023-05-07T08:33:49;3.63;;;3.13;;
16472;SDS011;8347;52.486;13.432;2023-05-07T08:36:36;4.60;;;3.30;;
16472;SDS011;8347;52.486;13.432;2023-05-07T08:39:23;3.28;;;2.95;;
16472;SDS011;8347;52.486;13.432;2023-05-07T08:42:12;7.88;;;3.72;;
16472;SDS011;8347;52.486;13.432;2023-05-07T08:44:59;7.40;;;3.67;;
16472;SDS011;8347;52.486;13.432;2023-05-07T08:47:53;5.07;;;3.25;;
16472;SDS011;8347;52.486;13.432;2023-05-07T08:50:47;7.60;;;3.67;;
16472;SDS011;8347;52.486;13.432;2023-05-07T08:53:34;6.20;;;3.25;;
16472;SDS011;8347;52.486;13.432;2023-05-07T08:56:21;4.20;;;2.95;;
16472;SDS011;8347;52.486;13.432;2023-05-07T08:59:09;5.25;;;3.15;;
16472;SDS011;8347;52.486;13.432;2023-05-07T09:01:56;4.13;;;2.67;;
16472;SDS011;8347;52.486;13.432;2023-05-07T09:04:43;3.65;;;2.80;;
16472;SDS011;8347;52.486;13.432;2023-05-07T09:07:30;5.00;;;2.88;;
16472;SDS011;8347;52.486;13.432;2023-05-07T09:10:18;4.03;;;3.33;;
16472;SDS011;8347;52.486;13.432;2023-05-07T09:13:06;3.53;;;2.92;;
16472;SDS011;8347;52.486;13.432;2023-05-07T09:15:54;4.10;;;3.35;;
16472;SDS011;8347;52.486;13.432;2023-05-07T09:18:42;2.58;;;2.38;;
16472;SDS011;8347;52.486;13.432;2023-05-07T09:21:31;4.07;;;3.20;;
16472;SDS011;8347;52.486;13.432;2023-05-07T09:24:21;4.43;;;2.75;;
16472;SDS011;8347;52.486;13.432;2023-05-07T09:27:08;5.03;;;2.88;;
16472;SDS011;8347;52.486;13.432;2023-05-07T09:29:56;4.95;;;2.65;;
16472;SDS011;8347;52.486;13.432;2023-05-07T09:32:43;4.88;;;3.15;;
16472;SDS011;8347;52.486;13.432;2023-05-07T09:35:35;3.90;;;3.50;;
16472;SDS011;8347;52.486;13.432;2023-05-07T09:38:27;4.47;;;3.20;;
16472;SDS011;8347;52.486;13.432;2023-05-07T09:41:17;4.38;;;2.85;;
16472;SDS011;8347;52.486;13.432;2023-05-07T09:44:15;2.83;;;2.60;;
16472;SDS011;8347;52.486;13.432;2023-05-07T09:47:06;3.85;;;2.38;;
16472;SDS011;8347;52.486;13.432;2023-05-07T09:49:58;5.43;;;2.65;;
16472;SDS011;8347;52.486;13.432;2023-05-07T09:52:48;3.10;;;2.58;;
16472;SDS011;8347;52.486;13.432;2023-05-07T09:55:35;3.67;;;2.88;;
16472;SDS011;8347;52.486;13.432;2023-05-07T09:58:22;7.70;;;3.05;;
16472;SDS011;8347;52.486;13.432;2023-05-07T10:01:10;15.05;;;5.93;;
16472;SDS011;8347;52.486;13.432;2023-05-07T10:04:01;6.93;;;2.90;;
16472;SDS011;8347;52.486;13.432;2023-05-07T10:06:49;4.85;;;2.10;;
16472;SDS011;8347;52.486;13.432;2023-05-07T10:09:36;3.80;;;2.15;;
16472;SDS011;8347;52.486;13.432;2023-05-07T10:12:27;2.70;;;1.98;;
16472;SDS011;8347;52.486;13.432;2023-05-07T10:15:14;3.45;;;2.88;;
16472;SDS011;8347;52.486;13.432;2023-05-07T10:18:04;1.55;;;1.20;;
16472;SDS011;8347;52.486;13.432;2023-05-07T10:20:52;3.63;;;2.00;;
16472;SDS011;8347;52.486;13.432;2023-05-07T10:23:41;2.00;;;1.60;;
16472;SDS011;8347;52.486;13.432;2023-05-07T10:26:31;2.17;;;1.67;;
16472;SDS011;8347;52.486;13.432;2023-05-07T10:32:22;1.83;;;1.50;;
16472;SDS011;8347;52.486;13.432;2023-05-07T10:35:18;2.67;;;1.67;;
16472;SDS011;8347;52.486;13.432;2023-05-07T10:38:07;2.10;;;1.65;;
16472;SDS011;8347;52.486;13.432;2023-05-07T10:40:56;2.97;;;1.48;;
16472;SDS011;8347;52.486;13.432;2023-05-07T10:43:44;2.03;;;1.65;;
16472;SDS011;8347;52.486;13.432;2023-05-07T10:46:42;2.17;;;1.30;;
16472;SDS011;8347;52.486;13.432;2023-05-07T10:52:36;2.47;;;1.70;;
16472;SDS011;8347;52.486;13.432;2023-05-07T10:55:30;2.78;;;2.00;;
16472;SDS011;8347;52.486;13.432;2023-05-07T10:58:28;2.25;;;1.52;;
16472;SDS011;8347;52.486;13.432;2023-05-07T11:04:29;3.40;;;1.60;;
16472;SDS011;8347;52.486;13.432;2023-05-07T11:07:40;1.40;;;1.30;;
16472;SDS011;8347;52.486;13.432;2023-05-07T11:13:44;5.07;;;1.95;;
16472;SDS011;8347;52.486;13.432;2023-05-07T11:16:40;2.72;;;1.80;;
16472;SDS011;8347;52.486;13.432;2023-05-07T11:19:54;2.30;;;1.73;;
16472;SDS011;8347;52.486;13.432;2023-05-07T11:22:53;2.25;;;1.77;;
16472;SDS011;8347;52.486;13.432;2023-05-07T11:25:47;8.20;;;2.67;;
16472;SDS011;8347;52.486;13.432;2023-05-07T11:28:41;8.90;;;3.35;;
16472;SDS011;8347;52.486;13.432;2023-05-07T11:31:29;23.17;;;6.75;;
16472;SDS011;8347;52.486;13.432;2023-05-07T11:34:22;2.22;;;1.80;;
16472;SDS011;8347;52.486;13.432;2023-05-07T11:37:10;3.58;;;1.80;;
16472;SDS011;8347;52.486;13.432;2023-05-07T11:40:05;2.20;;;1.67;;
16472;SDS011;8347;52.486;13.432;2023-05-07T11:42:52;2.53;;;2.00;;
16472;SDS011;8347;52.486;13.432;2023-05-07T11:45:39;2.63;;;1.50;;
16472;SDS011;8347;52.486;13.432;2023-05-07T11:48:25;2.05;;;1.30;;
16472;SDS011;8347;52.486;13.432;2023-05-07T11:51:12;1.77;;;1.67;;
16472;SDS011;8347;52.486;13.432;2023-05-07T11:53:59;1.80;;;1.58;;
16472;SDS011;8347;52.486;13.432;2023-05-07T11:56:45;1.67;;;1.58;;
16472;SDS011;8347;52.486;13.432;2023-05-07T11:59:39;1.60;;;1.50;;
16472;SDS011;8347;52.486;13.432;2023-05-07T12:02:26;2.08;;;1.58;;
16472;SDS011;8347;52.486;13.432;2023-05-07T12:05:13;2.35;;;1.70;;
16472;SDS011;8347;52.486;13.432;2023-05-07T12:08:00;2.20;;;1.60;;
16472;SDS011;8347;52.486;13.432;2023-05-07T12:10:47;3.25;;;1.77;;
16472;SDS011;8347;52.486;13.432;2023-05-07T12:13:34;1.30;;;1.20;;
16472;SDS011;8347;52.486;13.432;2023-05-07T12:16:21;3.03;;;1.52;;
16472;SDS011;8347;52.486;13.432;2023-05-07T12:19:08;2.30;;;1.48;;
16472;SDS011;8347;52.486;13.432;2023-05-07T12:21:58;2.10;;;1.50;;
16472;SDS011;8347;52.486;13.432;2023-05-07T12:24:45;2.65;;;1.92;;
16472;SDS011;8347;52.486;13.432;2023-05-07T12:27:32;2.22;;;1.50;;
16472;SDS011;8347;52.486;13.432;2023-05-07T12:30:23;3.28;;;1.50;;
16472;SDS011;8347;52.486;13.432;2023-05-07T12:33:09;3.28;;;1.45;;
16472;SDS011;8347;52.486;13.432;2023-05-07T12:35:56;2.40;;;1.60;;
16472;SDS011;8347;52.486;13.432;2023-05-07T12:38:43;2.55;;;1.35;;
16472;SDS011;8347;52.486;13.432;2023-05-07T12:41:29;2.90;;;1.45;;
16472;SDS011;8347;52.486;13.432;2023-05-07T12:44:16;1.98;;;1.60;;
16472;SDS011;8347;52.486;13.432;2023-05-07T12:47:03;1.85;;;1.40;;
16472;SDS011;8347;52.486;13.432;2023-05-07T12:49:49;2.28;;;1.50;;
16472;SDS011;8347;52.486;13.432;2023-05-07T12:52:37;11.15;;;2.55;;
16472;SDS011;8347;52.486;13.432;2023-05-07T12:55:24;4.28;;;1.98;;
16472;SDS011;8347;52.486;13.432;2023-05-07T12:58:14;2.67;;;1.50;;
16472;SDS011;8347;52.486;13.432;2023-05-07T13:01:05;5.53;;;1.58;;
16472;SDS011;8347;52.486;13.432;2023-05-07T13:03:51;7.07;;;1.35;;
16472;SDS011;8347;52.486;13.432;2023-05-07T13:06:38;1.60;;;1.30;;
16472;SDS011;8347;52.486;13.432;2023-05-07T13:09:25;3.42;;;2.53;;
16472;SDS011;8347;52.486;13.432;2023-05-07T13:12:12;1.98;;;1.58;;
16472;SDS011;8347;52.486;13.432;2023-05-07T13:14:58;1.65;;;1.45;;
16472;SDS011;8347;52.486;13.432;2023-05-07T13:17:45;1.50;;;1.40;;
16472;SDS011;8347;52.486;13.432;2023-05-07T13:20:32;2.13;;;1.73;;
16472;SDS011;8347;52.486;13.432;2023-05-07T13:23:19;1.40;;;1.20;;
16472;SDS011;8347;52.486;13.432;2023-05-07T13:26:05;2.03;;;1.20;;
16472;SDS011;8347;52.486;13.432;2023-05-07T13:28:53;3.47;;;1.38;;
16472;SDS011;8347;52.486;13.432;2023-05-07T13:31:40;2.78;;;1.67;;
16472;SDS011;8347;52.486;13.432;2023-05-07T13:34:29;1.92;;;1.13;;
16472;SDS011;8347;52.486;13.432;2023-05-07T13:37:16;1.92;;;1.30;;
16472;SDS011;8347;52.486;13.432;2023-05-07T13:40:03;2.17;;;1.30;;
16472;SDS011;8347;52.486;13.432;2023-05-07T13:42:50;1.80;;;1.45;;
16472;SDS011;8347;52.486;13.432;2023-05-07T13:45:37;1.65;;;1.33;;
16472;SDS011;8347;52.486;13.432;2023-05-07T13:48:24;1.83;;;1.35;;
16472;SDS011;8347;52.486;13.432;2023-05-07T13:51:10;1.95;;;1.42;;
16472;SDS011;8347;52.486;13.432;2023-05-07T13:53:57;2.40;;;1.52;;
16472;SDS011;8347;52.486;13.432;2023-05-07T13:56:44;3.88;;;1.40;;
16472;SDS011;8347;52.486;13.432;2023-05-07T13:59:30;2.10;;;1.35;;
16472;SDS011;8347;52.486;13.432;2023-05-07T14:02:20;4.60;;;1.73;;
16472;SDS011;8347;52.486;13.432;2023-05-07T14:05:07;2.30;;;1.27;;
16472;SDS011;8347;52.486;13.432;2023-05-07T14:07:55;11.50;;;2.75;;
16472;SDS011;8347;52.486;13.432;2023-05-07T14:10:43;1.95;;;1.20;;
16472;SDS011;8347;52.486;13.432;2023-05-07T14:13:29;1.30;;;1.20;;
16472;SDS011;8347;52.486;13.432;2023-05-07T14:16:16;1.30;;;1.20;;
16472;SDS011;8347;52.486;13.432;2023-05-07T14:19:03;3.20;;;1.45;;
16472;SDS011;8347;52.486;13.432;2023-05-07T14:21:49;1.55;;;1.20;;
16472;SDS011;8347;52.486;13.432;2023-05-07T14:24:36;1.50;;;1.27;;
16472;SDS011;8347;52.486;13.432;2023-05-07T14:27:22;1.70;;;1.30;;
16472;SDS011;8347;52.486;13.432;2023-05-07T14:30:09;6.35;;;1.73;;
16472;SDS011;8347;52.486;13.432;2023-05-07T14:32:56;1.70;;;1.40;;
16472;SDS011;8347;52.486;13.432;2023-05-07T14:35:42;3.08;;;1.48;;
16472;SDS011;8347;52.486;13.432;2023-05-07T14:38:33;1.48;;;1.30;;
16472;SDS011;8347;52.486;13.432;2023-05-07T14:41:20;3.70;;;1.40;;
16472;SDS011;8347;52.486;13.432;2023-05-07T14:44:07;1.80;;;1.33;;
16472;SDS011;8347;52.486;13.432;2023-05-07T14:46:54;4.57;;;1.35;;
16472;SDS011;8347;52.486;13.432;2023-05-07T14:49:42;1.75;;;1.58;;
16472;SDS011;8347;52.486;13.432;2023-05-07T14:52:28;1.65;;;1.38;;
16472;SDS011;8347;52.486;13.432;2023-05-07T14:55:14;26.52;;;6.50;;
16472;SDS011;8347;52.486;13.432;2023-05-07T14:58:01;2.33;;;1.58;;
16472;SDS011;8347;52.486;13.432;2023-05-07T15:00:47;1.60;;;1.30;;
16472;SDS011;8347;52.486;13.432;2023-05-07T15:03:34;2.55;;;1.52;;
16472;SDS011;8347;52.486;13.432;2023-05-07T15:06:21;2.20;;;1.70;;
16472;SDS011;8347;52.486;13.432;2023-05-07T15:09:08;2.58;;;1.50;;
16472;SDS011;8347;52.486;13.432;2023-05-07T15:11:54;7.95;;;1.60;;
16472;SDS011;8347;52.486;13.432;2023-05-07T15:14:41;2.88;;;1.30;;
16472;SDS011;8347;52.486;13.432;2023-05-07T15:17:28;3.42;;;1.30;;
16472;SDS011;8347;52.486;13.432;2023-05-07T15:20:14;1.50;;;1.35;;
16472;SDS011;8347;52.486;13.432;2023-05-07T15:23:01;1.48;;;1.20;;
16472;SDS011;8347;52.486;13.432;2023-05-07T15:25:50;3.58;;;1.13;;
16472;SDS011;8347;52.486;13.432;2023-05-07T15:28:36;2.08;;;1.20;;
16472;SDS011;8347;52.486;13.432;2023-05-07T15:31:24;1.25;;;1.08;;
16472;SDS011;8347;52.486;13.432;2023-05-07T15:34:10;2.03;;;1.13;;
16472;SDS011;8347;52.486;13.432;2023-05-07T15:36:57;2.50;;;1.40;;
16472;SDS011;8347;52.486;13.432;2023-05-07T15:39:43;3.03;;;1.40;;
16472;SDS011;8347;52.486;13.432;2023-05-07T15:42:30;4.10;;;1.23;;
16472;SDS011;8347;52.486;13.432;2023-05-07T15:45:17;1.63;;;1.30;;
16472;SDS011;8347;52.486;13.432;2023-05-07T15:48:04;3.85;;;1.13;;
16472;SDS011;8347;52.486;13.432;2023-05-07T15:50:50;4.13;;;1.42;;
16472;SDS011;8347;52.486;13.432;2023-05-07T15:53:37;1.48;;;1.38;;
16472;SDS011;8347;52.486;13.432;2023-05-07T15:56:25;3.03;;;1.48;;
16472;SDS011;8347;52.486;13.432;2023-05-07T15:59:11;3.47;;;1.55;;
16472;SDS011;8347;52.486;13.432;2023-05-07T16:01:58;3.03;;;1.40;;
16472;SDS011;8347;52.486;13.432;2023-05-07T16:04:45;3.90;;;1.40;;
16472;SDS011;8347;52.486;13.432;2023-05-07T16:07:32;1.70;;;1.45;;
16472;SDS011;8347;52.486;13.432;2023-05-07T16:10:19;2.17;;;1.65;;
16472;SDS011;8347;52.486;13.432;2023-05-07T16:13:06;1.50;;;1.40;;
16472;SDS011;8347;52.486;13.432;2023-05-07T16:15:55;2.75;;;1.50;;
16472;SDS011;8347;52.486;13.432;2023-05-07T16:18:43;1.63;;;1.23;;
16472;SDS011;8347;52.486;13.432;2023-05-07T16:21:29;2.08;;;1.60;;
16472;SDS011;8347;52.486;13.432;2023-05-07T16:24:17;2.15;;;1.42;;
16472;SDS011;8347;52.486;13.432;2023-05-07T16:27:04;2.28;;;1.17;;
16472;SDS011;8347;52.486;13.432;2023-05-07T16:29:51;2.35;;;1.38;;
16472;SDS011;8347;52.486;13.432;2023-05-07T16:32:37;2.13;;;1.80;;
16472;SDS011;8347;52.486;13.432;2023-05-07T16:35:24;4.70;;;1.70;;
16472;SDS011;8347;52.486;13.432;2023-05-07T16:38:11;13.77;;;4.43;;
16472;SDS011;8347;52.486;13.432;2023-05-07T16:40:58;4.18;;;1.73;;
16472;SDS011;8347;52.486;13.432;2023-05-07T16:43:44;3.80;;;1.50;;
16472;SDS011;8347;52.486;13.432;2023-05-07T16:46:31;1.50;;;1.25;;
16472;SDS011;8347;52.486;13.432;2023-05-07T16:49:18;2.15;;;1.40;;
16472;SDS011;8347;52.486;13.432;2023-05-07T16:52:04;1.35;;;1.25;;
16472;SDS011;8347;52.486;13.432;2023-05-07T16:54:52;3.50;;;1.40;;
16472;SDS011;8347;52.486;13.432;2023-05-07T16:57:42;1.70;;;1.48;;